sensor_id;sensor_type;location;lat;lon;timestamp;pressure;altitude;pressure_sealevel;temperature
34901;BMP280;21112;51.976;5.660;2023-11-21T00:01:57;100081.84;;;7.02
34901;BMP280;21112;51.976;5.660;2023-11-21T00:04:23;100089.25;;;7.08
34901;BMP280;21112;51.976;5.660;2023-11-21T00:06:50;100093.47;;;7.05
34901;BMP280;21112;51.976;5.660;2023-11-21T00:09:17;100092.75;;;6.98
34901;BMP280;21112;51.976;5.660;2023-11-21T00:11:47;100097.00;;;6.93
34901;BMP280;21112;51.976;5.660;2023-11-21T00:14:13;100102.88;;;6.91
34901;BMP280;21112;51.976;5.660;2023-11-21T00:16:40;100103.84;;;6.82
34901;BMP280;21112;51.976;5.660;2023-11-21T00:19:07;100101.47;;;6.75
34901;BMP280;21112;51.976;5.660;2023-11-21T00:21:34;100098.97;;;6.75
34901;BMP280;21112;51.976;5.660;2023-11-21T00:24:00;100105.66;;;6.74
34901;BMP280;21112;51.976;5.660;2023-11-21T00:26:27;100116.63;;;6.64
34901;BMP280;21112;51.976;5.660;2023-11-21T00:28:55;100111.84;;;6.52
34901;BMP280;21112;51.976;5.660;2023-11-21T00:31:21;100104.50;;;6.45
34901;BMP280;21112;51.976;5.660;2023-11-21T00:33:47;100102.81;;;6.45
34901;BMP280;21112;51.976;5.660;2023-11-21T00:36:14;100109.50;;;6.43
34901;BMP280;21112;51.976;5.660;2023-11-21T00:38:40;100111.19;;;6.43
34901;BMP280;21112;51.976;5.660;2023-11-21T00:41:07;100107.09;;;6.36
34901;BMP280;21112;51.976;5.660;2023-11-21T00:43:33;100105.50;;;6.33
34901;BMP280;21112;51.976;5.660;2023-11-21T00:46:05;100108.03;;;6.32
34901;BMP280;21112;51.976;5.660;2023-11-21T00:48:32;100117.25;;;6.25
34901;BMP280;21112;51.976;5.660;2023-11-21T00:50:59;100121.53;;;6.19
34901;BMP280;21112;51.976;5.660;2023-11-21T00:53:26;100123.22;;;6.15
34901;BMP280;21112;51.976;5.660;2023-11-21T00:55:52;100120.81;;;6.11
34901;BMP280;21112;51.976;5.660;2023-11-21T00:58:22;100126.66;;;6.10
34901;BMP280;21112;51.976;5.660;2023-11-21T01:00:49;100131.59;;;6.11
34901;BMP280;21112;51.976;5.660;2023-11-21T01:03:16;100129.09;;;6.11
34901;BMP280;21112;51.976;5.660;2023-11-21T01:05:43;100141.63;;;6.10
34901;BMP280;21112;51.976;5.660;2023-11-21T01:08:10;100141.56;;;6.11
34901;BMP280;21112;51.976;5.660;2023-11-21T01:10:37;100144.91;;;6.12
34901;BMP280;21112;51.976;5.660;2023-11-21T01:13:04;100144.06;;;6.11
34901;BMP280;21112;51.976;5.660;2023-11-21T01:15:30;100144.91;;;6.12
34901;BMP280;21112;51.976;5.660;2023-11-21T01:17:57;100160.56;;;6.23
34901;BMP280;21112;51.976;5.660;2023-11-21T01:20:25;100159.63;;;6.30
34901;BMP280;21112;51.976;5.660;2023-11-21T01:22:52;100162.91;;;6.32
34901;BMP280;21112;51.976;5.660;2023-11-21T01:25:19;100167.03;;;6.34
34901;BMP280;21112;51.976;5.660;2023-11-21T01:27:46;100167.75;;;6.41
34901;BMP280;21112;51.976;5.660;2023-11-21T01:30:13;100164.13;;;6.61
34901;BMP280;21112;51.976;5.660;2023-11-21T01:32:40;100165.69;;;6.67
34901;BMP280;21112;51.976;5.660;2023-11-21T01:35:07;100163.78;;;6.82
34901;BMP280;21112;51.976;5.660;2023-11-21T01:37:36;100163.63;;;6.90
34901;BMP280;21112;51.976;5.660;2023-11-21T01:40:04;100163.72;;;6.85
34901;BMP280;21112;51.976;5.660;2023-11-21T01:42:34;100162.13;;;6.81
34901;BMP280;21112;51.976;5.660;2023-11-21T01:45:01;100163.03;;;6.77
34901;BMP280;21112;51.976;5.660;2023-11-21T01:47:30;100162.22;;;6.77
34901;BMP280;21112;51.976;5.660;2023-11-21T01:49:56;100168.13;;;6.71
34901;BMP280;21112;51.976;5.660;2023-11-21T01:52:23;100165.75;;;6.64
34901;BMP280;21112;51.976;5.660;2023-11-21T01:54:52;100177.56;;;6.51
34901;BMP280;21112;51.976;5.660;2023-11-21T01:57:19;100170.16;;;6.47
34901;BMP280;21112;51.976;5.660;2023-11-21T01:59:46;100174.31;;;6.48
34901;BMP280;21112;51.976;5.660;2023-11-21T02:02:15;100170.19;;;6.45
34901;BMP280;21112;51.976;5.660;2023-11-21T02:04:42;100169.38;;;6.45
34901;BMP280;21112;51.976;5.660;2023-11-21T02:07:08;100185.19;;;6.44
34901;BMP280;21112;51.976;5.660;2023-11-21T02:09:35;100181.06;;;6.43
34901;BMP280;21112;51.976;5.660;2023-11-21T02:12:05;100186.84;;;6.45
34901;BMP280;21112;51.976;5.660;2023-11-21T02:14:32;100187.63;;;6.47
34901;BMP280;21112;51.976;5.660;2023-11-21T02:16:59;100187.56;;;6.51
34901;BMP280;21112;51.976;5.660;2023-11-21T02:19:26;100187.59;;;6.50
34901;BMP280;21112;51.976;5.660;2023-11-21T02:21:54;100188.44;;;6.49
34901;BMP280;21112;51.976;5.660;2023-11-21T02:24:26;100199.16;;;6.54
34901;BMP280;21112;51.976;5.660;2023-11-21T02:26:53;100203.28;;;6.58
34901;BMP280;21112;51.976;5.660;2023-11-21T02:29:20;100204.94;;;6.59
34901;BMP280;21112;51.976;5.660;2023-11-21T02:31:47;100208.22;;;6.61
34901;BMP280;21112;51.976;5.660;2023-11-21T02:34:14;100200.72;;;6.61
34901;BMP280;21112;51.976;5.660;2023-11-21T02:36:41;100203.22;;;6.61
34901;BMP280;21112;51.976;5.660;2023-11-21T02:39:09;100199.84;;;6.66
34901;BMP280;21112;51.976;5.660;2023-11-21T02:41:37;100210.63;;;6.68
34901;BMP280;21112;51.976;5.660;2023-11-21T02:44:04;100205.56;;;6.71
34901;BMP280;21112;51.976;5.660;2023-11-21T02:46:32;100205.53;;;6.73
34901;BMP280;21112;51.976;5.660;2023-11-21T02:48:59;100207.19;;;6.75
34901;BMP280;21112;51.976;5.660;2023-11-21T02:51:26;100212.97;;;6.76
34901;BMP280;21112;51.976;5.660;2023-11-21T02:53:52;100212.94;;;6.79
34901;BMP280;21112;51.976;5.660;2023-11-21T02:56:20;100203.75;;;6.81
34901;BMP280;21112;51.976;5.660;2023-11-21T02:58:48;100216.22;;;6.82
34901;BMP280;21112;51.976;5.660;2023-11-21T03:01:15;100207.00;;;6.86
34901;BMP280;21112;51.976;5.660;2023-11-21T03:03:42;100205.31;;;6.88
34901;BMP280;21112;51.976;5.660;2023-11-21T03:06:09;100201.94;;;6.89
34901;BMP280;21112;51.976;5.660;2023-11-21T03:08:35;100203.56;;;6.91
34901;BMP280;21112;51.976;5.660;2023-11-21T03:11:02;100207.72;;;6.92
34901;BMP280;21112;51.976;5.660;2023-11-21T03:13:29;100201.91;;;6.92
34901;BMP280;21112;51.976;5.660;2023-11-21T03:15:57;100197.78;;;6.91
34901;BMP280;21112;51.976;5.660;2023-11-21T03:18:23;100210.28;;;6.88
34901;BMP280;21112;51.976;5.660;2023-11-21T03:20:52;100218.63;;;6.87
34901;BMP280;21112;51.976;5.660;2023-11-21T03:23:18;100219.47;;;6.87
34901;BMP280;21112;51.976;5.660;2023-11-21T03:25:45;100222.75;;;6.89
34901;BMP280;21112;51.976;5.660;2023-11-21T03:28:11;100216.88;;;6.93
34901;BMP280;21112;51.976;5.660;2023-11-21T03:30:38;100216.75;;;6.99
34901;BMP280;21112;51.976;5.660;2023-11-21T03:33:06;100218.38;;;7.02
34901;BMP280;21112;51.976;5.660;2023-11-21T03:35:33;100221.66;;;7.05
34901;BMP280;21112;51.976;5.660;2023-11-21T03:37:59;100227.41;;;7.10
34901;BMP280;21112;51.976;5.660;2023-11-21T03:40:26;100227.31;;;7.16
34901;BMP280;21112;51.976;5.660;2023-11-21T03:42:53;100227.22;;;7.22
34901;BMP280;21112;51.976;5.660;2023-11-21T03:45:19;100224.66;;;7.25
34901;BMP280;21112;51.976;5.660;2023-11-21T03:47:46;100235.41;;;7.29
34901;BMP280;21112;51.976;5.660;2023-11-21T03:50:14;100232.88;;;7.32
34901;BMP280;21112;51.976;5.660;2023-11-21T03:52:41;100230.31;;;7.35
34901;BMP280;21112;51.976;5.660;2023-11-21T03:55:08;100225.31;;;7.35
34901;BMP280;21112;51.976;5.660;2023-11-21T03:57:35;100231.94;;;7.37
34901;BMP280;21112;51.976;5.660;2023-11-21T04:00:02;100237.72;;;7.39
34901;BMP280;21112;51.976;5.660;2023-11-21T04:02:33;100236.06;;;7.40
34901;BMP280;21112;51.976;5.660;2023-11-21T04:05:00;100238.50;;;7.43
34901;BMP280;21112;51.976;5.660;2023-11-21T04:07:28;100240.97;;;7.44
34901;BMP280;21112;51.976;5.660;2023-11-21T04:09:55;100245.13;;;7.45
34901;BMP280;21112;51.976;5.660;2023-11-21T04:12:22;100240.97;;;7.46
34901;BMP280;21112;51.976;5.660;2023-11-21T04:14:48;100248.44;;;7.47
34901;BMP280;21112;51.976;5.660;2023-11-21T04:17:18;100252.53;;;7.50
34901;BMP280;21112;51.976;5.660;2023-11-21T04:19:44;100257.50;;;7.53
34901;BMP280;21112;51.976;5.660;2023-11-21T04:22:11;100260.00;;;7.53
34901;BMP280;21112;51.976;5.660;2023-11-21T04:24:39;100268.31;;;7.53
34901;BMP280;21112;51.976;5.660;2023-11-21T04:27:05;100263.28;;;7.55
34901;BMP280;21112;51.976;5.660;2023-11-21T04:29:33;100271.56;;;7.58
34901;BMP280;21112;51.976;5.660;2023-11-21T04:32:01;100275.69;;;7.61
34901;BMP280;21112;51.976;5.660;2023-11-21T04:34:28;100274.84;;;7.62
34901;BMP280;21112;51.976;5.660;2023-11-21T04:36:56;100272.28;;;7.65
34901;BMP280;21112;51.976;5.660;2023-11-21T04:39:22;100278.09;;;7.65
34901;BMP280;21112;51.976;5.660;2023-11-21T04:41:50;100277.25;;;7.66
34901;BMP280;21112;51.976;5.660;2023-11-21T04:44:17;100283.09;;;7.67
34901;BMP280;21112;51.976;5.660;2023-11-21T04:46:44;100289.72;;;7.68
34901;BMP280;21112;51.976;5.660;2023-11-21T04:49:10;100291.34;;;7.72
34901;BMP280;21112;51.976;5.660;2023-11-21T04:51:37;100294.63;;;7.74
34901;BMP280;21112;51.976;5.660;2023-11-21T04:54:04;100297.91;;;7.76
34901;BMP280;21112;51.976;5.660;2023-11-21T04:56:31;100292.91;;;7.76
34901;BMP280;21112;51.976;5.660;2023-11-21T04:58:59;100291.22;;;7.78
34901;BMP280;21112;51.976;5.660;2023-11-21T05:01:25;100301.19;;;7.79
34901;BMP280;21112;51.976;5.660;2023-11-21T05:03:52;100305.31;;;7.80
34901;BMP280;21112;51.976;5.660;2023-11-21T05:06:19;100313.66;;;7.81
34901;BMP280;21112;51.976;5.660;2023-11-21T05:08:45;100310.28;;;7.83
34901;BMP280;21112;51.976;5.660;2023-11-21T05:11:23;100320.22;;;7.86
34901;BMP280;21112;51.976;5.660;2023-11-21T05:13:50;100318.56;;;7.87
34901;BMP280;21112;51.976;5.660;2023-11-21T05:16:18;100317.72;;;7.88
34901;BMP280;21112;51.976;5.660;2023-11-21T05:18:44;100320.13;;;7.91
34901;BMP280;21112;51.976;5.660;2023-11-21T05:21:11;100315.13;;;7.91
34901;BMP280;21112;51.976;5.660;2023-11-21T05:23:37;100323.47;;;7.93
34901;BMP280;21112;51.976;5.660;2023-11-21T05:26:05;100321.75;;;7.95
34901;BMP280;21112;51.976;5.660;2023-11-21T05:28:32;100320.88;;;7.96
34901;BMP280;21112;51.976;5.660;2023-11-21T05:30:59;100320.88;;;7.97
34901;BMP280;21112;51.976;5.660;2023-11-21T05:33:29;100318.34;;;7.99
34901;BMP280;21112;51.976;5.660;2023-11-21T05:35:55;100314.13;;;8.01
34901;BMP280;21112;51.976;5.660;2023-11-21T05:38:22;100327.41;;;8.04
34901;BMP280;21112;51.976;5.660;2023-11-21T05:40:49;100326.53;;;8.05
34901;BMP280;21112;51.976;5.660;2023-11-21T05:43:16;100340.69;;;8.06
34901;BMP280;21112;51.976;5.660;2023-11-21T05:45:43;100344.03;;;8.08
34901;BMP280;21112;51.976;5.660;2023-11-21T05:48:09;100347.31;;;8.10
34901;BMP280;21112;51.976;5.660;2023-11-21T05:50:37;100347.34;;;8.09
34901;BMP280;21112;51.976;5.660;2023-11-21T05:53:04;100351.53;;;8.08
34901;BMP280;21112;51.976;5.660;2023-11-21T05:55:31;100347.31;;;8.10
34901;BMP280;21112;51.976;5.660;2023-11-21T05:57:57;100361.47;;;8.10
34901;BMP280;21112;51.976;5.660;2023-11-21T06:00:25;100363.13;;;8.11
34901;BMP280;21112;51.976;5.660;2023-11-21T06:02:53;100364.81;;;8.12
34901;BMP280;21112;51.976;5.660;2023-11-21T06:05:21;100363.09;;;8.12
34901;BMP280;21112;51.976;5.660;2023-11-21T06:07:51;100373.09;;;8.14
34901;BMP280;21112;51.976;5.660;2023-11-21T06:10:20;100369.75;;;8.13
34901;BMP280;21112;51.976;5.660;2023-11-21T06:12:47;100372.25;;;8.13
34901;BMP280;21112;51.976;5.660;2023-11-21T06:15:13;100383.09;;;8.15
34901;BMP280;21112;51.976;5.660;2023-11-21T06:17:40;100383.91;;;8.16
34901;BMP280;21112;51.976;5.660;2023-11-21T06:20:08;100379.69;;;8.18
34901;BMP280;21112;51.976;5.660;2023-11-21T06:22:39;100383.84;;;8.19
34901;BMP280;21112;51.976;5.660;2023-11-21T06:25:08;100388.03;;;8.20
34901;BMP280;21112;51.976;5.660;2023-11-21T06:27:37;100387.19;;;8.21
34901;BMP280;21112;51.976;5.660;2023-11-21T06:30:05;100388.81;;;8.22
34901;BMP280;21112;51.976;5.660;2023-11-21T06:32:35;100387.97;;;8.23
34901;BMP280;21112;51.976;5.660;2023-11-21T06:35:02;100387.09;;;8.25
34901;BMP280;21112;51.976;5.660;2023-11-21T06:37:29;100384.56;;;8.27
34901;BMP280;21112;51.976;5.660;2023-11-21T06:39:56;100387.84;;;8.29
34901;BMP280;21112;51.976;5.660;2023-11-21T06:42:25;100394.50;;;8.30
34901;BMP280;21112;51.976;5.660;2023-11-21T06:44:51;100396.97;;;8.33
34901;BMP280;21112;51.976;5.660;2023-11-21T06:47:19;100389.47;;;8.33
34901;BMP280;21112;51.976;5.660;2023-11-21T06:49:46;100398.63;;;8.34
34901;BMP280;21112;51.976;5.660;2023-11-21T06:52:14;100397.78;;;8.33
34901;BMP280;21112;51.976;5.660;2023-11-21T06:54:40;100395.31;;;8.32
34901;BMP280;21112;51.976;5.660;2023-11-21T06:57:07;100406.16;;;8.31
34901;BMP280;21112;51.976;5.660;2023-11-21T06:59:35;100409.50;;;8.33
34901;BMP280;21112;51.976;5.660;2023-11-21T07:02:02;100421.13;;;8.35
34901;BMP280;21112;51.976;5.660;2023-11-21T07:04:30;100418.56;;;8.37
34901;BMP280;21112;51.976;5.660;2023-11-21T07:06:57;100425.22;;;8.38
34901;BMP280;21112;51.976;5.660;2023-11-21T07:09:23;100426.91;;;8.37
34901;BMP280;21112;51.976;5.660;2023-11-21T07:11:51;100429.41;;;8.39
34901;BMP280;21112;51.976;5.660;2023-11-21T07:14:18;100431.06;;;8.40
34901;BMP280;21112;51.976;5.660;2023-11-21T07:16:46;100441.84;;;8.42
34901;BMP280;21112;51.976;5.660;2023-11-21T07:19:13;100444.34;;;8.42
34901;BMP280;21112;51.976;5.660;2023-11-21T07:21:40;100453.50;;;8.44
34901;BMP280;21112;51.976;5.660;2023-11-21T07:24:08;100456.78;;;8.46
34901;BMP280;21112;51.976;5.660;2023-11-21T07:26:35;100458.47;;;8.46
34901;BMP280;21112;51.976;5.660;2023-11-21T07:29:02;100465.13;;;8.48
34901;BMP280;21112;51.976;5.660;2023-11-21T07:31:29;100464.19;;;8.51
34901;BMP280;21112;51.976;5.660;2023-11-21T07:34:01;100465.03;;;8.53
34901;BMP280;21112;51.976;5.660;2023-11-21T07:36:31;100469.97;;;8.54
34901;BMP280;21112;51.976;5.660;2023-11-21T07:38:58;100473.25;;;8.58
34901;BMP280;21112;51.976;5.660;2023-11-21T07:41:24;100469.00;;;8.61
34901;BMP280;21112;51.976;5.660;2023-11-21T07:43:51;100476.47;;;8.64
34901;BMP280;21112;51.976;5.660;2023-11-21T07:46:18;100478.13;;;8.65
34901;BMP280;21112;51.976;5.660;2023-11-21T07:48:46;100484.69;;;8.71
34901;BMP280;21112;51.976;5.660;2023-11-21T07:51:13;100490.53;;;8.73
34901;BMP280;21112;51.976;5.660;2023-11-21T07:53:40;100494.59;;;8.77
34901;BMP280;21112;51.976;5.660;2023-11-21T07:56:09;100490.41;;;8.79
34901;BMP280;21112;51.976;5.660;2023-11-21T07:58:36;100500.34;;;8.82
34901;BMP280;21112;51.976;5.660;2023-11-21T08:01:03;100500.34;;;8.82
34901;BMP280;21112;51.976;5.660;2023-11-21T08:03:30;100510.34;;;8.83
34901;BMP280;21112;51.976;5.660;2023-11-21T08:05:58;100502.84;;;8.83
34901;BMP280;21112;51.976;5.660;2023-11-21T08:08:27;100512.81;;;8.85
34901;BMP280;21112;51.976;5.660;2023-11-21T08:10:54;100518.63;;;8.87
34901;BMP280;21112;51.976;5.660;2023-11-21T08:13:22;100521.16;;;8.85
34901;BMP280;21112;51.976;5.660;2023-11-21T08:15:49;100524.47;;;8.87
34901;BMP280;21112;51.976;5.660;2023-11-21T08:18:16;100528.59;;;8.90
34901;BMP280;21112;51.976;5.660;2023-11-21T08:20:44;100528.56;;;8.93
34901;BMP280;21112;51.976;5.660;2023-11-21T08:23:13;100536.06;;;8.93
34901;BMP280;21112;51.976;5.660;2023-11-21T08:25:43;100539.34;;;8.95
34901;BMP280;21112;51.976;5.660;2023-11-21T08:28:12;100536.84;;;8.96
34901;BMP280;21112;51.976;5.660;2023-11-21T08:30:39;100530.00;;;9.03
34901;BMP280;21112;51.976;5.660;2023-11-21T08:33:07;100533.34;;;9.03
34901;BMP280;21112;51.976;5.660;2023-11-21T08:35:34;100545.00;;;9.06
34901;BMP280;21112;51.976;5.660;2023-11-21T08:38:01;100548.22;;;9.11
34901;BMP280;21112;51.976;5.660;2023-11-21T08:40:28;100549.88;;;9.12
34901;BMP280;21112;51.976;5.660;2023-11-21T08:42:56;100557.38;;;9.13
34901;BMP280;21112;51.976;5.660;2023-11-21T08:45:24;100563.97;;;9.17
34901;BMP280;21112;51.976;5.660;2023-11-21T08:47:51;100564.75;;;9.21
34901;BMP280;21112;51.976;5.660;2023-11-21T08:50:17;100561.38;;;9.23
34901;BMP280;21112;51.976;5.660;2023-11-21T08:52:45;100569.56;;;9.30
34901;BMP280;21112;51.976;5.660;2023-11-21T08:55:12;100579.47;;;9.36
34901;BMP280;21112;51.976;5.660;2023-11-21T08:57:39;100576.09;;;9.38
34901;BMP280;21112;51.976;5.660;2023-11-21T09:00:09;100576.13;;;9.35
34901;BMP280;21112;51.976;5.660;2023-11-21T09:02:37;100581.88;;;9.42
34901;BMP280;21112;51.976;5.660;2023-11-21T09:05:06;100591.06;;;9.41
34901;BMP280;21112;51.976;5.660;2023-11-21T09:07:34;100591.88;;;9.43
34901;BMP280;21112;51.976;5.660;2023-11-21T09:10:08;100600.31;;;9.39
34901;BMP280;21112;51.976;5.660;2023-11-21T09:12:38;100603.66;;;9.38
34901;BMP280;21112;51.976;5.660;2023-11-21T09:15:07;100605.31;;;9.39
34901;BMP280;21112;51.976;5.660;2023-11-21T09:17:38;100608.72;;;9.37
34901;BMP280;21112;51.976;5.660;2023-11-21T09:20:09;100611.16;;;9.40
34901;BMP280;21112;51.976;5.660;2023-11-21T09:22:36;100612.88;;;9.38
34901;BMP280;21112;51.976;5.660;2023-11-21T09:25:04;100623.66;;;9.41
34901;BMP280;21112;51.976;5.660;2023-11-21T09:27:31;100631.94;;;9.46
34901;BMP280;21112;51.976;5.660;2023-11-21T09:29:58;100627.63;;;9.53
34901;BMP280;21112;51.976;5.660;2023-11-21T09:32:34;100634.97;;;9.62
34901;BMP280;21112;51.976;5.660;2023-11-21T09:35:06;100636.53;;;9.66
34901;BMP280;21112;51.976;5.660;2023-11-21T09:37:33;100647.47;;;9.63
34901;BMP280;21112;51.976;5.660;2023-11-21T09:40:06;100644.13;;;9.64
34901;BMP280;21112;51.976;5.660;2023-11-21T09:42:39;100643.13;;;9.71
34901;BMP280;21112;51.976;5.660;2023-11-21T09:45:14;100637.06;;;9.81
34901;BMP280;21112;51.976;5.660;2023-11-21T09:47:43;100642.88;;;9.83
34901;BMP280;21112;51.976;5.660;2023-11-21T09:50:16;100644.34;;;9.92
34901;BMP280;21112;51.976;5.660;2023-11-21T09:52:54;100657.81;;;10.29
34901;BMP280;21112;51.976;5.660;2023-11-21T09:55:25;100663.41;;;10.39
34901;BMP280;21112;51.976;5.660;2023-11-21T09:57:54;100656.06;;;10.32
34901;BMP280;21112;51.976;5.660;2023-11-21T10:00:22;100646.25;;;10.58
34901;BMP280;21112;51.976;5.660;2023-11-21T10:02:50;100662.75;;;10.66
34901;BMP280;21112;51.976;5.660;2023-11-21T10:05:19;100668.09;;;10.54
34901;BMP280;21112;51.976;5.660;2023-11-21T10:07:48;100663.25;;;10.45
34901;BMP280;21112;51.976;5.660;2023-11-21T10:10:18;100664.16;;;10.43
34901;BMP280;21112;51.976;5.660;2023-11-21T10:12:49;100672.44;;;10.46
34901;BMP280;21112;51.976;5.660;2023-11-21T10:15:21;100672.50;;;10.45
34901;BMP280;21112;51.976;5.660;2023-11-21T10:17:49;100696.81;;;10.43
34901;BMP280;21112;51.976;5.660;2023-11-21T10:20:20;100696.88;;;10.40
34901;BMP280;21112;51.976;5.660;2023-11-21T10:22:46;100688.81;;;10.26
34901;BMP280;21112;51.976;5.660;2023-11-21T10:25:13;100688.00;;;10.26
34901;BMP280;21112;51.976;5.660;2023-11-21T10:27:41;100692.97;;;10.29
34901;BMP280;21112;51.976;5.660;2023-11-21T10:30:09;100709.66;;;10.30
34901;BMP280;21112;51.976;5.660;2023-11-21T10:32:37;100703.91;;;10.25
34901;BMP280;21112;51.976;5.660;2023-11-21T10:35:06;100713.31;;;10.17
34901;BMP280;21112;51.976;5.660;2023-11-21T10:37:37;100709.16;;;10.14
34901;BMP280;21112;51.976;5.660;2023-11-21T10:40:06;100711.75;;;10.11
34901;BMP280;21112;51.976;5.660;2023-11-21T10:42:34;100712.63;;;10.10
34901;BMP280;21112;51.976;5.660;2023-11-21T10:45:01;100710.09;;;10.10
34901;BMP280;21112;51.976;5.660;2023-11-21T10:47:31;100707.63;;;10.09
34901;BMP280;21112;51.976;5.660;2023-11-21T10:49:57;100705.16;;;10.06
34901;BMP280;21112;51.976;5.660;2023-11-21T10:52:27;100702.41;;;10.18
34901;BMP280;21112;51.976;5.660;2023-11-21T10:54:57;100715.44;;;10.33
34901;BMP280;21112;51.976;5.660;2023-11-21T10:57:25;100712.78;;;10.41
34901;BMP280;21112;51.976;5.660;2023-11-21T10:59:54;100719.63;;;10.34
34901;BMP280;21112;51.976;5.660;2023-11-21T11:02:22;100728.09;;;10.30
34901;BMP280;21112;51.976;5.660;2023-11-21T11:04:52;100742.50;;;10.21
34901;BMP280;21112;51.976;5.660;2023-11-21T11:07:21;100742.41;;;10.25
34901;BMP280;21112;51.976;5.660;2023-11-21T11:09:50;100743.31;;;10.23
34901;BMP280;21112;51.976;5.660;2023-11-21T11:12:19;100751.75;;;10.19
34901;BMP280;21112;51.976;5.660;2023-11-21T11:14:46;100750.84;;;10.23
34901;BMP280;21112;51.976;5.660;2023-11-21T11:17:14;100757.56;;;10.21
34901;BMP280;21112;51.976;5.660;2023-11-21T11:19:41;100750.97;;;10.15
34901;BMP280;21112;51.976;5.660;2023-11-21T11:22:19;100762.81;;;10.10
34901;BMP280;21112;51.976;5.660;2023-11-21T11:24:53;100768.00;;;10.00
34901;BMP280;21112;51.976;5.660;2023-11-21T11:27:34;100763.88;;;9.97
34901;BMP280;21112;51.976;5.660;2023-11-21T11:30:11;100760.38;;;10.06
34901;BMP280;21112;51.976;5.660;2023-11-21T11:32:49;100770.28;;;10.13
34901;BMP280;21112;51.976;5.660;2023-11-21T11:35:26;100761.72;;;10.23
34901;BMP280;21112;51.976;5.660;2023-11-21T11:37:57;100772.56;;;10.24
34901;BMP280;21112;51.976;5.660;2023-11-21T11:40:26;100765.94;;;10.20
34901;BMP280;21112;51.976;5.660;2023-11-21T11:43:06;100758.38;;;10.21
34901;BMP280;21112;51.976;5.660;2023-11-21T11:45:34;100770.94;;;10.21
34901;BMP280;21112;51.976;5.660;2023-11-21T11:48:11;100765.88;;;10.24
34901;BMP280;21112;51.976;5.660;2023-11-21T11:50:42;100775.72;;;10.33
34901;BMP280;21112;51.976;5.660;2023-11-21T11:53:33;100785.00;;;10.30
34901;BMP280;21112;51.976;5.660;2023-11-21T11:56:20;100785.19;;;10.21
34901;BMP280;21112;51.976;5.660;2023-11-21T11:58:50;100802.66;;;10.25
34901;BMP280;21112;51.976;5.660;2023-11-21T12:01:18;100803.56;;;10.23
34901;BMP280;21112;51.976;5.660;2023-11-21T12:04:23;100807.63;;;10.28
34901;BMP280;21112;51.976;5.660;2023-11-21T12:06:57;100815.31;;;10.21
34901;BMP280;21112;51.976;5.660;2023-11-21T12:09:26;100812.72;;;10.25
34901;BMP280;21112;51.976;5.660;2023-11-21T12:11:53;100817.63;;;10.30
34901;BMP280;21112;51.976;5.660;2023-11-21T12:14:23;100810.78;;;10.38
34901;BMP280;21112;51.976;5.660;2023-11-21T12:16:49;100813.16;;;10.43
34901;BMP280;21112;51.976;5.660;2023-11-21T12:19:17;100811.19;;;10.57
34901;BMP280;21112;51.976;5.660;2023-11-21T12:21:44;100811.97;;;10.59
34901;BMP280;21112;51.976;5.660;2023-11-21T12:24:11;100821.44;;;10.48
34901;BMP280;21112;51.976;5.660;2023-11-21T12:26:39;100829.00;;;10.47
34901;BMP280;21112;51.976;5.660;2023-11-21T12:29:06;100830.75;;;10.43
34901;BMP280;21112;51.976;5.660;2023-11-21T12:31:34;100831.84;;;10.31
34901;BMP280;21112;51.976;5.660;2023-11-21T12:34:01;100837.84;;;10.22
34901;BMP280;21112;51.976;5.660;2023-11-21T12:36:32;100838.03;;;10.15
34901;BMP280;21112;51.976;5.660;2023-11-21T12:39:00;100837.16;;;10.17
34901;BMP280;21112;51.976;5.660;2023-11-21T12:41:27;100839.56;;;10.22
34901;BMP280;21112;51.976;5.660;2023-11-21T12:43:55;100836.16;;;10.24
34901;BMP280;21112;51.976;5.660;2023-11-21T12:46:23;100840.22;;;10.30
34901;BMP280;21112;51.976;5.660;2023-11-21T12:48:52;100842.72;;;10.31
34901;BMP280;21112;51.976;5.660;2023-11-21T12:51:21;100840.34;;;10.24
34901;BMP280;21112;51.976;5.660;2023-11-21T12:53:48;100837.09;;;10.19
34901;BMP280;21112;51.976;5.660;2023-11-21T12:56:15;100837.28;;;10.10
34901;BMP280;21112;51.976;5.660;2023-11-21T12:58:44;100833.03;;;10.12
34901;BMP280;21112;51.976;5.660;2023-11-21T13:01:12;100833.03;;;10.12
34901;BMP280;21112;51.976;5.660;2023-11-21T13:03:45;100842.28;;;10.11
34901;BMP280;21112;51.976;5.660;2023-11-21T13:06:15;100849.81;;;10.10
34901;BMP280;21112;51.976;5.660;2023-11-21T13:08:44;100853.13;;;10.12
34901;BMP280;21112;51.976;5.660;2023-11-21T13:11:11;100859.88;;;10.10
34901;BMP280;21112;51.976;5.660;2023-11-21T13:13:40;100861.53;;;10.09
34901;BMP280;21112;51.976;5.660;2023-11-21T13:16:08;100862.94;;;10.25
34901;BMP280;21112;51.976;5.660;2023-11-21T13:18:35;100871.16;;;10.32
34901;BMP280;21112;51.976;5.660;2023-11-21T13:21:04;100861.94;;;10.34
34901;BMP280;21112;51.976;5.660;2023-11-21T13:23:38;100861.84;;;10.38
34901;BMP280;21112;51.976;5.660;2023-11-21T13:26:15;100864.13;;;10.48
34901;BMP280;21112;51.976;5.660;2023-11-21T13:28:49;100865.91;;;10.43
34901;BMP280;21112;51.976;5.660;2023-11-21T13:31:16;100862.59;;;10.42
34901;BMP280;21112;51.976;5.660;2023-11-21T13:33:52;100876.03;;;10.41
34901;BMP280;21112;51.976;5.660;2023-11-21T13:36:24;100875.50;;;10.24
34901;BMP280;21112;51.976;5.660;2023-11-21T13:39:01;100877.13;;;10.26
34901;BMP280;21112;51.976;5.660;2023-11-21T13:41:32;100887.84;;;10.34
34901;BMP280;21112;51.976;5.660;2023-11-21T13:44:00;100892.66;;;10.44
34901;BMP280;21112;51.976;5.660;2023-11-21T13:46:41;100891.47;;;10.62
34901;BMP280;21112;51.976;5.660;2023-11-21T13:49:07;100894.81;;;10.62
34901;BMP280;21112;51.976;5.660;2023-11-21T13:51:35;100894.91;;;10.58
34901;BMP280;21112;51.976;5.660;2023-11-21T13:54:07;100905.00;;;10.55
34901;BMP280;21112;51.976;5.660;2023-11-21T13:56:41;100905.97;;;10.49
34901;BMP280;21112;51.976;5.660;2023-11-21T13:59:09;100912.72;;;10.48
34901;BMP280;21112;51.976;5.660;2023-11-21T14:01:46;100912.75;;;10.44
34901;BMP280;21112;51.976;5.660;2023-11-21T14:04:23;100905.31;;;10.40
34901;BMP280;21112;51.976;5.660;2023-11-21T14:07:16;100912.00;;;10.39
34901;BMP280;21112;51.976;5.660;2023-11-21T14:09:55;100915.47;;;10.34
34901;BMP280;21112;51.976;5.660;2023-11-21T14:12:23;100923.94;;;10.29